createdAt,value
2023-04-09T00:03:26.846Z,80.80
2023-04-09T00:06:54.040Z,77.90
2023-04-09T00:10:21.403Z,74.80
2023-04-09T00:13:48.292Z,72.60
2023-04-09T00:17:15.107Z,77.60
2023-04-09T00:20:42.083Z,69.50
2023-04-09T00:24:09.321Z,76.60
2023-04-09T00:27:36.314Z,67.00
2023-04-09T00:31:03.729Z,77.40
2023-04-09T00:34:30.567Z,79.40
2023-04-09T00:37:57.598Z,73.90
2023-04-09T00:41:24.560Z,79.60
2023-04-09T00:44:51.349Z,77.60
2023-04-09T00:48:18.793Z,79.00
2023-04-09T00:51:47.706Z,74.10
2023-04-09T00:55:15.537Z,71.10
2023-04-09T00:58:43.160Z,73.50
2023-04-09T01:02:10.147Z,77.10
2023-04-09T01:05:45.217Z,71.90
2023-04-09T01:09:19.478Z,81.40
2023-04-09T01:12:59.322Z,75.30
2023-04-09T01:16:27.231Z,77.60
2023-04-09T01:20:03.308Z,79.10
2023-04-09T01:23:43.517Z,77.00
2023-04-09T01:27:11.366Z,71.60
2023-04-09T01:30:50.506Z,68.60
2023-04-09T01:34:18.059Z,73.00
2023-04-09T01:37:45.424Z,68.20
2023-04-09T01:41:16.047Z,80.90
2023-04-09T01:44:43.766Z,78.20
2023-04-09T01:48:11.373Z,72.80
2023-04-09T01:51:39.460Z,71.90
2023-04-09T01:55:07.333Z,73.00
2023-04-09T01:58:35.333Z,80.30
2023-04-09T02:02:07.932Z,88.50
2023-04-09T02:05:42.626Z,91.70
2023-04-09T02:09:12.703Z,76.70
2023-04-09T02:12:43.918Z,106.50
2023-04-09T02:16:12.681Z,101.00
2023-04-09T02:19:44.832Z,75.00
2023-04-09T02:23:13.635Z,69.00
2023-04-09T02:26:40.628Z,66.80
2023-04-09T02:30:09.690Z,79.00
2023-04-09T02:33:36.461Z,126.80
2023-04-09T02:37:03.650Z,129.10
2023-04-09T02:40:31.167Z,126.20
2023-04-09T02:43:58.276Z,128.20
2023-04-09T02:47:27.202Z,118.30
2023-04-09T02:50:54.120Z,90.10
2023-04-09T02:54:21.505Z,83.40
2023-04-09T02:57:48.649Z,74.90
2023-04-09T03:01:15.592Z,69.90
2023-04-09T03:04:42.598Z,72.00
2023-04-09T03:08:09.666Z,71.70
2023-04-09T03:11:36.989Z,74.60
2023-04-09T03:15:04.593Z,86.70
2023-04-09T03:18:31.526Z,112.70
2023-04-09T03:21:58.483Z,103.80
2023-04-09T03:25:26.647Z,130.20
2023-04-09T03:28:54.642Z,117.50
2023-04-09T03:32:22.127Z,109.00
2023-04-09T03:35:49.373Z,84.30
2023-04-09T03:39:17.854Z,83.50
2023-04-09T03:42:46.671Z,79.70
2023-04-09T03:46:18.862Z,75.90
2023-04-09T03:49:47.231Z,67.40
2023-04-09T03:53:24.069Z,67.40
2023-04-09T03:56:52.542Z,73.20
2023-04-09T04:04:16.516Z,67.50
2023-04-09T04:08:03.925Z,69.20
2023-04-09T04:11:30.939Z,80.70
2023-04-09T04:14:58.077Z,75.60
2023-04-09T04:18:31.730Z,77.40
2023-04-09T04:21:58.716Z,72.50
2023-04-09T04:25:26.887Z,75.40
2023-04-09T04:28:55.096Z,81.60
2023-04-09T04:33:01.104Z,79.50
2023-04-09T04:39:55.869Z,81.70
2023-04-09T04:43:23.378Z,72.50
2023-04-09T04:46:52.487Z,83.70
2023-04-09T04:50:19.618Z,86.60
2023-04-09T04:53:57.194Z,91.20
2023-04-09T04:57:24.863Z,101.50
2023-04-09T05:00:52.591Z,95.80
2023-04-09T05:04:19.600Z,91.80
2023-04-09T05:07:47.273Z,111.20
2023-04-09T05:11:16.936Z,101.60
2023-04-09T05:14:45.718Z,94.10
2023-04-09T05:18:12.851Z,93.90
2023-04-09T05:21:40.419Z,97.50
2023-04-09T05:25:10.536Z,105.30
2023-04-09T05:28:39.077Z,102.30
2023-04-09T05:32:13.392Z,129.50
2023-04-09T05:35:42.667Z,133.10
2023-04-09T05:39:10.126Z,83.00
2023-04-09T05:42:37.981Z,101.00
2023-04-09T05:46:12.151Z,93.60
2023-04-09T05:49:39.076Z,70.60
2023-04-09T05:53:10.241Z,102.00
2023-04-09T05:56:41.821Z,80.90
2023-04-09T06:00:10.865Z,70.30
2023-04-09T06:03:44.382Z,79.30
2023-04-09T06:07:11.495Z,94.30
2023-04-09T06:10:39.545Z,74.70
2023-04-09T06:14:08.509Z,78.40
2023-04-09T06:17:35.624Z,82.90
2023-04-09T06:21:06.981Z,70.50
2023-04-09T06:24:35.973Z,74.90
2023-04-09T06:28:05.589Z,83.00
2023-04-09T06:31:33.570Z,82.70
2023-04-09T06:35:01.787Z,85.20
2023-04-09T06:38:29.559Z,82.30
2023-04-09T06:41:56.598Z,78.60
2023-04-09T06:45:32.878Z,81.10
2023-04-09T06:49:00.063Z,66.30
2023-04-09T06:52:27.010Z,78.30
2023-04-09T06:55:55.501Z,80.60
2023-04-09T06:59:23.634Z,63.20
2023-04-09T07:02:50.726Z,62.90
2023-04-09T07:06:17.809Z,64.80
2023-04-09T07:09:45.594Z,59.60
2023-04-09T07:13:12.675Z,58.00
2023-04-09T07:16:39.765Z,60.40
2023-04-09T07:20:08.371Z,62.50
2023-04-09T07:23:38.217Z,61.50
2023-04-09T07:27:07.693Z,56.60
2023-04-09T07:30:34.991Z,60.60
2023-04-09T07:34:03.129Z,57.60
2023-04-09T07:37:30.558Z,56.50
2023-04-09T07:40:58.552Z,56.40
2023-04-09T07:44:26.348Z,61.30
2023-04-09T07:47:53.809Z,62.40
2023-04-09T07:51:22.903Z,58.60
2023-04-09T07:54:52.389Z,61.40
2023-04-09T07:58:20.583Z,58.20
2023-04-09T08:01:47.748Z,49.60
2023-04-09T08:05:15.757Z,58.50
2023-04-09T08:08:45.716Z,58.20
2023-04-09T08:12:13.277Z,52.90
2023-04-09T08:15:41.608Z,51.70
2023-04-09T08:19:09.358Z,50.50
2023-04-09T08:22:37.444Z,50.40
2023-04-09T08:26:04.674Z,52.20
2023-04-09T08:29:32.532Z,51.50
2023-04-09T08:32:59.691Z,53.20
2023-04-09T08:36:27.819Z,47.80
2023-04-09T08:39:56.089Z,42.80
2023-04-09T08:43:41.962Z,43.90
2023-04-09T08:47:14.371Z,44.60
2023-04-09T08:50:42.198Z,37.00
2023-04-09T08:54:10.400Z,39.90
2023-04-09T08:57:42.863Z,42.10
2023-04-09T09:01:22.086Z,39.70
2023-04-09T09:04:51.139Z,36.90
2023-04-09T09:08:27.255Z,37.50
2023-04-09T09:11:55.037Z,38.50
2023-04-09T09:15:32.288Z,31.90
2023-04-09T09:19:01.162Z,37.40
2023-04-09T09:22:28.261Z,36.00
2023-04-09T09:25:56.426Z,37.20
2023-04-09T09:29:24.826Z,31.70
2023-04-09T09:32:55.237Z,28.70
2023-04-09T09:36:36.845Z,26.90
2023-04-09T09:40:05.289Z,30.70
2023-04-09T09:43:43.357Z,28.50
2023-04-09T09:47:13.397Z,29.40
2023-04-09T09:50:42.139Z,35.00
2023-04-09T09:54:13.069Z,29.60
2023-04-09T09:57:43.621Z,29.50
2023-04-09T10:01:14.650Z,25.40
2023-04-09T10:04:41.954Z,27.20
2023-04-09T10:08:10.260Z,26.50
2023-04-09T10:11:42.566Z,27.40
2023-04-09T10:15:12.157Z,23.20
2023-04-09T10:18:40.757Z,26.40
2023-04-09T10:22:11.461Z,30.80
2023-04-09T10:25:38.494Z,25.80
2023-04-09T10:29:10.061Z,27.80
2023-04-09T10:32:40.034Z,29.50
2023-04-09T10:36:13.360Z,26.60
2023-04-09T10:39:46.236Z,28.10
2023-04-09T10:43:14.478Z,27.80
2023-04-09T10:46:43.275Z,25.80
2023-04-09T10:50:26.699Z,27.40
2023-04-09T10:53:55.172Z,25.90
2023-04-09T10:57:26.376Z,29.00
2023-04-09T11:00:55.349Z,27.70
2023-04-09T11:04:24.546Z,25.90
2023-04-09T11:07:56.271Z,30.90
2023-04-09T11:11:29.407Z,26.70
2023-04-09T11:14:56.269Z,22.70
2023-04-09T11:18:28.555Z,24.60
2023-04-09T11:21:56.196Z,24.40
2023-04-09T11:25:26.530Z,26.00
2023-04-09T11:28:59.180Z,39.90
2023-04-09T11:32:32.054Z,43.00
2023-04-09T11:35:59.053Z,32.10
2023-04-09T11:39:26.309Z,28.30
2023-04-09T11:42:55.580Z,28.00
2023-04-09T11:46:26.155Z,25.40
2023-04-09T11:49:54.058Z,26.70
2023-04-09T11:53:24.523Z,37.90
2023-04-09T11:56:56.050Z,27.70
2023-04-09T12:00:24.959Z,25.60
2023-04-09T12:03:57.232Z,23.30
2023-04-09T12:07:25.409Z,22.30
2023-04-09T12:10:54.099Z,24.70
2023-04-09T12:14:22.897Z,27.10
2023-04-09T12:17:52.193Z,23.50
2023-04-09T12:21:19.465Z,28.50
2023-04-09T12:24:46.594Z,23.40
2023-04-09T12:28:15.845Z,21.60
2023-04-09T12:31:42.713Z,25.80
2023-04-09T12:35:10.650Z,22.10
2023-04-09T12:38:38.320Z,33.90
2023-04-09T12:42:05.215Z,28.30
2023-04-09T12:45:32.692Z,25.20
2023-04-09T12:48:59.517Z,24.20
2023-04-09T12:52:26.718Z,23.80
2023-04-09T12:55:53.913Z,25.10
2023-04-09T12:59:20.933Z,34.60
2023-04-09T13:02:48.176Z,22.30
2023-04-09T13:06:15.271Z,26.90
2023-04-09T13:09:42.224Z,24.50
2023-04-09T13:13:12.275Z,25.30
2023-04-09T13:16:39.372Z,21.30
2023-04-09T13:20:07.862Z,21.90
2023-04-09T13:23:34.806Z,31.40
2023-04-09T13:27:02.158Z,24.40
2023-04-09T13:30:29.418Z,26.70
2023-04-09T13:33:56.688Z,24.40
2023-04-09T13:37:23.619Z,24.10
2023-04-09T13:40:50.348Z,23.40
2023-04-09T13:44:17.286Z,23.50
2023-04-09T13:47:44.500Z,25.80
2023-04-09T13:51:12.177Z,24.60
2023-04-09T13:54:39.555Z,24.70
2023-04-09T13:58:06.618Z,24.00
2023-04-09T14:01:35.938Z,29.70
2023-04-09T14:05:03.989Z,25.90
2023-04-09T14:08:32.234Z,38.10
2023-04-09T14:11:59.068Z,150.10
2023-04-09T14:15:26.450Z,24.40
2023-04-09T14:18:53.474Z,25.40
2023-04-09T14:22:20.526Z,103.70
2023-04-09T14:25:47.424Z,19.70
2023-04-09T14:29:14.295Z,22.00
2023-04-09T14:32:41.323Z,21.40
2023-04-09T14:36:09.403Z,21.90
2023-04-09T14:39:36.474Z,21.50
2023-04-09T14:43:03.514Z,21.10
2023-04-09T14:46:30.433Z,19.30
2023-04-09T14:49:57.534Z,20.60
2023-04-09T14:53:24.741Z,18.00
2023-04-09T14:56:52.111Z,19.00
2023-04-09T15:00:19.804Z,31.20
2023-04-09T15:03:47.708Z,23.90
2023-04-09T15:07:14.548Z,27.70
2023-04-09T15:10:41.932Z,20.90
2023-04-09T15:14:08.914Z,35.20
2023-04-09T15:17:35.900Z,22.70
2023-04-09T15:21:03.234Z,40.90
2023-04-09T15:24:30.089Z,26.40
2023-04-09T15:27:57.160Z,26.70
2023-04-09T15:31:24.272Z,29.20
2023-04-09T15:34:51.280Z,19.70
2023-04-09T15:38:21.200Z,22.00
2023-04-09T15:41:48.106Z,25.20
2023-04-09T15:45:16.792Z,25.10
2023-04-09T15:48:43.905Z,22.40
2023-04-09T15:52:11.216Z,22.90
2023-04-09T15:55:38.216Z,24.00
2023-04-09T15:59:05.438Z,25.80
2023-04-09T16:02:32.446Z,25.30
2023-04-09T16:06:01.825Z,22.90
2023-04-09T16:09:29.312Z,22.30
2023-04-09T16:12:56.599Z,22.20
2023-04-09T16:16:23.824Z,27.70
2023-04-09T16:19:51.048Z,26.50
2023-04-09T16:23:18.244Z,28.00
2023-04-09T16:26:46.517Z,23.20
2023-04-09T16:30:14.619Z,28.70
2023-04-09T16:33:43.264Z,33.00
2023-04-09T16:37:11.926Z,20.90
2023-04-09T16:40:39.856Z,20.90
2023-04-09T16:44:10.411Z,17.00
2023-04-09T16:47:40.592Z,23.50
2023-04-09T16:51:11.080Z,24.40
2023-04-09T16:54:38.928Z,26.50
2023-04-09T16:58:09.511Z,28.60
2023-04-09T17:01:38.720Z,31.00
2023-04-09T17:05:09.071Z,28.70
2023-04-09T17:08:37.147Z,32.50
2023-04-09T17:12:05.731Z,43.90
2023-04-09T17:15:33.477Z,46.60
2023-04-09T17:19:04.670Z,40.40
2023-04-09T17:22:38.277Z,30.80
2023-04-09T17:26:06.663Z,30.20
2023-04-09T17:29:35.728Z,40.10
2023-04-09T17:33:05.076Z,60.30
2023-04-09T17:36:35.613Z,76.40
2023-04-09T17:40:04.299Z,51.80
2023-04-09T17:43:32.095Z,40.60
2023-04-09T17:47:00.511Z,41.30
2023-04-09T17:50:29.117Z,59.40
2023-04-09T17:53:57.420Z,68.20
2023-04-09T17:57:27.858Z,69.80
2023-04-09T18:00:57.132Z,47.70
2023-04-09T18:04:29.087Z,54.60
2023-04-09T18:07:59.910Z,56.30
2023-04-09T18:11:28.163Z,70.80
2023-04-09T18:14:55.371Z,101.60
2023-04-09T18:18:25.711Z,69.00
2023-04-09T18:21:55.534Z,61.70
2023-04-09T18:25:23.580Z,54.80
2023-04-09T18:28:51.644Z,45.60
2023-04-09T18:32:20.364Z,44.10
2023-04-09T18:35:49.536Z,49.20
2023-04-09T18:39:20.199Z,50.80
2023-04-09T18:42:53.007Z,65.60
2023-04-09T18:46:22.928Z,73.50
2023-04-09T18:49:52.146Z,83.70
2023-04-09T18:53:20.248Z,75.80
2023-04-09T18:56:49.381Z,82.40
2023-04-09T19:00:18.594Z,153.30
2023-04-09T19:03:46.336Z,179.90
2023-04-09T19:07:17.779Z,113.20
2023-04-09T19:10:47.825Z,79.00
2023-04-09T19:14:16.122Z,70.80
2023-04-09T19:17:45.163Z,74.50
2023-04-09T19:21:13.799Z,64.90
2023-04-09T19:24:44.308Z,60.70
2023-04-09T19:28:12.670Z,62.00
2023-04-09T19:31:41.650Z,64.60
2023-04-09T19:35:12.679Z,67.80
2023-04-09T19:38:40.728Z,65.40
2023-04-09T19:42:10.299Z,63.40
2023-04-09T19:45:39.387Z,59.10
2023-04-09T19:49:08.233Z,58.10
2023-04-09T19:52:37.994Z,58.20
2023-04-09T19:56:06.069Z,58.60
2023-04-09T19:59:41.060Z,61.90
2023-04-09T20:03:10.561Z,62.60
2023-04-09T20:06:37.562Z,63.00
2023-04-09T20:10:05.076Z,58.70
2023-04-09T20:13:33.404Z,57.00
2023-04-09T20:17:00.433Z,58.60
2023-04-09T20:20:27.785Z,56.80
2023-04-09T20:23:54.704Z,55.50
2023-04-09T20:27:22.637Z,53.10
2023-04-09T20:30:49.437Z,53.00
2023-04-09T20:34:16.558Z,53.00
2023-04-09T20:37:43.516Z,58.70
2023-04-09T20:41:10.495Z,54.20
2023-04-09T20:44:38.185Z,59.40
2023-04-09T20:48:05.095Z,63.90
2023-04-09T20:51:32.265Z,64.20
2023-04-09T20:54:59.975Z,90.30
2023-04-09T20:58:27.707Z,84.50
2023-04-09T21:01:55.676Z,65.10
2023-04-09T21:05:24.184Z,78.10
2023-04-09T21:08:52.217Z,68.20
2023-04-09T21:12:19.340Z,78.00
2023-04-09T21:15:46.455Z,78.20
2023-04-09T21:19:13.643Z,70.30
2023-04-09T21:22:41.087Z,70.90
2023-04-09T21:26:08.998Z,69.40
2023-04-09T21:29:36.156Z,73.80
2023-04-09T21:33:05.675Z,73.10
2023-04-09T21:36:36.365Z,63.30
2023-04-09T21:40:03.706Z,57.50
2023-04-09T21:43:30.691Z,62.20
2023-04-09T21:46:57.838Z,65.80
2023-04-09T21:50:25.099Z,61.30
2023-04-09T21:53:54.185Z,60.00
2023-04-09T21:57:21.100Z,67.40
2023-04-09T22:00:48.169Z,65.10
2023-04-09T22:04:15.137Z,61.30
2023-04-09T22:07:42.672Z,55.40
2023-04-09T22:11:09.970Z,56.10
2023-04-09T22:14:36.942Z,57.70
2023-04-09T22:18:04.102Z,58.60
2023-04-09T22:21:31.707Z,55.80
2023-04-09T22:24:58.717Z,58.00
2023-04-09T22:28:25.775Z,55.30
2023-04-09T22:31:52.693Z,57.80
2023-04-09T22:35:20.043Z,60.90
2023-04-09T22:38:47.517Z,62.00
2023-04-09T22:42:14.775Z,65.40
2023-04-09T22:45:41.630Z,68.60
2023-04-09T22:49:09.133Z,65.20
2023-04-09T22:52:36.443Z,67.70
2023-04-09T22:56:03.712Z,68.90
2023-04-09T22:59:39.248Z,63.90
2023-04-09T23:03:07.726Z,61.70
2023-04-09T23:06:34.723Z,60.10
2023-04-09T23:10:02.090Z,51.90
2023-04-09T23:13:29.124Z,55.70
2023-04-09T23:16:56.419Z,66.50
2023-04-09T23:20:23.754Z,70.50
2023-04-09T23:23:50.622Z,66.10
2023-04-09T23:27:17.569Z,64.70
2023-04-09T23:30:45.063Z,65.10
2023-04-09T23:34:13.022Z,74.40
2023-04-09T23:37:39.892Z,72.60
2023-04-09T23:41:08.118Z,73.20
2023-04-09T23:44:35.506Z,74.60
2023-04-09T23:48:03.296Z,71.30
2023-04-09T23:51:30.172Z,69.40
2023-04-09T23:54:56.992Z,73.70
2023-04-09T23:58:24.057Z,72.70
